Time;durP1;ratioP1;P1;durP2;ratioP2;P2;SDS_P1;SDS_P2;PMS_P1;PMS_P2;Temp;Humidity;BMP_temperature;BMP_pressure;BME280_temperature;BME280_humidity;BME280_pressure;Samples;Min_cycle;Max_cycle;Signal;HPM_P1;HPM_P2
2023/07/12 00:01:00;;;;;;;11.52;6.03;;;;;;;27.31;42.94;99453.56;4433422;32;33640;-68
2023/07/12 00:03:29;;;;;;;10.57;5.05;;;;;;;27.35;42.83;99456.69;4434122;32;34620;-67
2023/07/12 00:05:57;;;;;;;9.88;5.50;;;;;;;27.38;43.03;99462.59;4434984;32;34026;-68
2023/07/12 00:08:28;;;;;;;9.70;5.72;;;;;;;27.41;42.88;99466.78;4434545;32;33803;-66
2023/07/12 00:10:57;;;;;;;9.38;5.78;;;;;;;27.33;42.86;99459.69;4435415;32;33994;-68
2023/07/12 00:13:25;;;;;;;9.63;5.43;;;;;;;27.26;43.33;99456.19;4435548;32;33496;-67
2023/07/12 00:15:53;;;;;;;13.25;5.50;;;;;;;27.03;43.91;99445.88;4434664;32;33851;-67
2023/07/12 00:18:24;;;;;;;11.38;5.15;;;;;;;27.21;43.58;99442.28;4432745;32;33736;-67
2023/07/12 00:20:53;;;;;;;12.73;6.55;;;;;;;27.20;43.46;99445.28;4433008;32;33606;-67
2023/07/12 00:23:20;;;;;;;10.98;5.35;;;;;;;27.35;42.90;99446.56;4433635;32;33829;-68
2023/07/12 00:25:48;;;;;;;10.23;5.65;;;;;;;27.34;42.76;99455.03;4436664;32;33055;-68
2023/07/12 00:28:25;;;;;;;9.05;5.05;;;;;;;27.34;42.74;99457.78;4433562;32;34229;-67
2023/07/12 00:30:55;;;;;;;10.38;6.00;;;;;;;27.30;42.69;99462.06;4434506;32;33604;-67
2023/07/12 00:33:23;;;;;;;8.98;4.55;;;;;;;27.21;42.82;99453.28;4430327;32;34635;-65
2023/07/12 00:35:51;;;;;;;10.10;5.35;;;;;;;27.22;42.79;99448.62;4435120;32;33154;-64
2023/07/12 00:38:23;;;;;;;12.63;6.18;;;;;;;27.22;42.80;99449.47;4432644;32;33576;-65
2023/07/12 00:41:49;;;;;;;8.73;5.20;;;;;;;27.21;43.13;99446.97;4434348;32;34394;-66
2023/07/12 00:44:32;;;;;;;10.15;5.50;;;;;;;27.20;43.34;99443.38;4416725;32;33388;-65
2023/07/12 00:46:59;;;;;;;10.50;5.82;;;;;;;27.07;43.72;99444.34;4415589;32;33032;-65
2023/07/12 00:49:27;;;;;;;11.82;4.75;;;;;;;27.08;43.37;99436.94;4415825;32;33412;-65
2023/07/12 00:52:05;;;;;;;7.95;4.70;;;;;;;27.05;43.06;99423.66;4414494;32;34039;-66
2023/07/12 00:54:50;;;;;;;9.88;5.30;;;;;;;26.99;43.10;99433.66;4402602;32;33385;-65
2023/07/12 00:57:18;;;;;;;;;;;;;;;27.06;43.24;99442.69;4418089;32;33073;-65
2023/07/12 00:59:45;;;;;;;11.50;5.82;;;;;;;27.04;43.29;99443.97;4416599;32;33401;-65
2023/07/12 01:02:14;;;;;;;12.27;6.28;;;;;;;26.98;43.42;99439.38;4417246;32;34818;-65
2023/07/12 01:04:46;;;;;;;10.07;5.87;;;;;;;26.94;43.42;99431.59;4417297;32;34805;-66
2023/07/12 01:07:15;;;;;;;9.02;4.72;;;;;;;26.94;43.62;99425.28;4397564;32;34367;-65
2023/07/12 01:09:42;;;;;;;9.00;5.37;;;;;;;26.95;43.83;99411.31;4415558;32;33714;-65
2023/07/12 01:12:11;;;;;;;10.50;5.18;;;;;;;26.94;44.07;99404.16;4415983;32;33900;-64
2023/07/12 01:14:40;;;;;;;9.30;5.43;;;;;;;26.94;43.97;99400.56;4422324;32;33545;-64
2023/07/12 01:17:07;;;;;;;8.35;5.10;;;;;;;26.98;43.98;99398.19;4441130;32;33249;-65
2023/07/12 01:19:37;;;;;;;8.25;4.97;;;;;;;26.94;44.00;99400.56;4438862;32;35025;-65
2023/07/12 01:22:05;;;;;;;12.07;5.70;;;;;;;26.87;44.30;99399.78;4438105;32;33676;-65
2023/07/12 01:24:34;;;;;;;7.25;5.05;;;;;;;26.88;44.16;99401.47;4432579;32;33457;-65
2023/07/12 01:27:15;;;;;;;10.50;5.85;;;;;;;26.91;44.00;99399.09;4435172;32;33746;-64
2023/07/12 01:29:42;;;;;;;10.23;5.85;;;;;;;26.92;44.12;99388.97;4433618;32;35074;-64
2023/07/12 01:32:10;;;;;;;9.75;5.62;;;;;;;26.60;45.12;99391.00;4435459;32;34582;-65
2023/07/12 01:34:38;;;;;;;11.15;6.50;;;;;;;26.72;45.04;99389.19;4433832;32;33486;-64
2023/07/12 01:37:06;;;;;;;13.65;5.87;;;;;;;26.77;45.11;99396.75;4435138;32;33141;-64
2023/07/12 01:39:33;;;;;;;10.73;6.18;;;;;;;26.74;45.33;99395.28;4435557;32;34045;-64
2023/07/12 01:42:02;;;;;;;11.12;6.30;;;;;;;26.85;45.13;99391.78;4434126;32;34573;-64
2023/07/12 01:44:29;;;;;;;9.25;5.15;;;;;;;26.90;44.47;99394.69;4434538;32;33574;-64
2023/07/12 01:46:57;;;;;;;12.80;6.15;;;;;;;26.97;44.10;99401.97;4434707;32;34096;-65
2023/07/12 01:49:25;;;;;;;11.38;5.60;;;;;;;26.95;43.72;99408.56;4433668;32;34714;-65
2023/07/12 01:51:53;;;;;;;8.32;4.12;;;;;;;26.93;43.43;99409.84;4433433;32;34723;-64
2023/07/12 01:54:21;;;;;;;10.27;5.93;;;;;;;26.93;42.78;99405.22;4433775;32;33623;-64
2023/07/12 01:56:49;;;;;;;8.68;4.28;;;;;;;26.91;42.02;99409.25;4434672;32;33050;-64
2023/07/12 01:59:16;;;;;;;8.27;4.10;;;;;;;26.97;41.51;99411.09;4431153;32;34802;-65
2023/07/12 02:01:44;;;;;;;14.25;4.90;;;;;;;26.94;40.88;99408.81;4434227;32;33690;-65
2023/07/12 02:04:12;;;;;;;11.65;4.93;;;;;;;26.85;41.06;99415.66;4431230;32;33661;-64
2023/07/12 02:06:39;;;;;;;12.45;5.07;;;;;;;26.91;40.88;99412.84;4434944;32;34268;-65
2023/07/12 02:09:07;;;;;;;13.82;4.62;;;;;;;26.94;40.72;99414.28;4434443;32;33749;-64
2023/07/12 02:11:35;;;;;;;8.25;4.35;;;;;;;27.05;40.26;99402.53;4434829;32;33907;-65
2023/07/12 02:14:02;;;;;;;8.93;5.78;;;;;;;27.12;40.04;99410.69;4435358;32;33607;-65
2023/07/12 02:16:33;;;;;;;5.55;3.25;;;;;;;27.05;39.93;99399.78;4432240;32;34206;-65
2023/07/12 02:19:00;;;;;;;8.32;4.53;;;;;;;27.13;40.01;99401.38;4432224;32;33697;-64
2023/07/12 02:21:27;;;;;;;6.80;3.67;;;;;;;27.13;39.84;99399.50;4432435;32;34207;-64
2023/07/12 02:23:55;;;;;;;7.95;3.97;;;;;;;27.24;39.61;99400.63;4434318;32;34614;-65
2023/07/12 02:26:23;;;;;;;12.18;4.55;;;;;;;27.22;39.92;99393.69;4429023;32;33052;-64
2023/07/12 02:28:51;;;;;;;9.55;5.25;;;;;;;27.23;40.04;99378.91;4432971;32;34717;-65
2023/07/12 02:31:21;;;;;;;7.82;4.12;;;;;;;27.16;40.32;99379.81;4427725;32;34880;-65
2023/07/12 02:33:50;;;;;;;8.63;4.50;;;;;;;27.15;40.27;99374.53;4432541;32;33900;-65
2023/07/12 02:36:17;;;;;;;9.60;4.62;;;;;;;27.25;39.87;99374.81;4434174;32;33401;-64
2023/07/12 02:38:46;;;;;;;10.30;5.15;;;;;;;27.23;39.85;99374.22;4433591;32;34280;-65
2023/07/12 02:41:16;;;;;;;7.43;4.60;;;;;;;27.15;40.27;99369.03;4434948;32;33634;-65
2023/07/12 02:43:44;;;;;;;8.88;4.37;;;;;;;27.21;39.74;99373.63;4433472;32;34034;-65
2023/07/12 02:46:13;;;;;;;6.87;3.90;;;;;;;27.19;39.49;99373.00;4436322;32;33296;-64
2023/07/12 02:48:40;;;;;;;7.15;3.75;;;;;;;27.18;39.62;99372.16;4435349;32;34310;-65
2023/07/12 02:51:08;;;;;;;7.95;3.70;;;;;;;27.22;39.50;99377.19;4434162;32;34705;-65
2023/07/12 02:53:36;;;;;;;8.68;4.00;;;;;;;27.20;39.50;99376.59;4435344;32;34587;-65
2023/07/12 02:56:08;;;;;;;7.18;4.35;;;;;;;27.18;39.55;99366.66;4436214;32;33383;-65
2023/07/12 02:58:36;;;;;;;13.20;4.20;;;;;;;26.93;40.17;99374.16;4435091;32;33760;-66
2023/07/12 03:01:05;;;;;;;6.65;4.10;;;;;;;27.12;39.81;99367.56;4432624;32;34162;-65
2023/07/12 03:03:32;;;;;;;7.62;3.97;;;;;;;27.17;39.56;99359.50;4433578;32;33989;-66
2023/07/12 03:06:08;;;;;;;12.00;7.70;;;;;;;27.15;39.64;99353.41;4436116;32;33124;-65
2023/07/12 03:08:36;;;;;;;7.55;3.75;;;;;;;27.02;40.08;99358.22;4436213;32;33360;-65
2023/07/12 03:11:07;;;;;;;8.50;4.03;;;;;;;27.07;40.06;99355.63;4434452;32;33862;-66
2023/07/12 03:13:35;;;;;;;9.57;3.87;;;;;;;27.13;39.80;99355.56;4434280;32;34633;-65
2023/07/12 03:16:04;;;;;;;6.70;3.78;;;;;;;27.06;39.93;99352.03;4436266;32;34375;-65
2023/07/12 03:18:32;;;;;;;8.05;3.78;;;;;;;27.05;39.96;99355.84;4435604;32;34082;-65
2023/07/12 03:21:01;;;;;;;6.80;3.33;;;;;;;27.09;39.79;99359.78;4427914;32;34312;-64
2023/07/12 03:23:30;;;;;;;6.00;3.67;;;;;;;27.12;39.86;99364.81;4432240;32;33607;-64
2023/07/12 03:25:57;;;;;;;9.38;4.45;;;;;;;27.12;39.84;99367.56;4434672;32;33026;-64
2023/07/12 03:28:27;;;;;;;7.30;4.03;;;;;;;26.97;40.20;99369.03;4433953;32;34833;-64
2023/07/12 03:31:05;;;;;;;10.57;3.33;;;;;;;26.88;40.23;99371.28;4430500;32;34929;-64
2023/07/12 03:33:33;;;;;;;6.00;3.40;;;;;;;26.78;40.62;99365.50;4433488;32;33736;-64
2023/07/12 03:36:02;;;;;;;7.60;3.58;;;;;;;26.92;40.29;99367.00;4431398;32;33142;-64
2023/07/12 03:38:30;;;;;;;6.05;3.35;;;;;;;27.04;40.03;99367.91;4435402;32;34683;-63
2023/07/12 03:41:03;;;;;;;7.97;4.53;;;;;;;26.96;40.21;99365.44;4431251;32;33766;-65
2023/07/12 03:43:32;;;;;;;8.23;3.47;;;;;;;27.05;40.35;99380.56;4433378;32;33866;-65
2023/07/12 03:45:59;;;;;;;7.12;3.72;;;;;;;27.08;40.06;99377.34;4430632;32;33675;-65
2023/07/12 03:48:27;;;;;;;10.27;4.55;;;;;;;27.10;40.20;99371.62;4434153;32;33303;-64
2023/07/12 03:50:56;;;;;;;7.32;3.42;;;;;;;27.14;40.06;99384.69;4433942;32;33850;-66
2023/07/12 03:53:25;;;;;;;6.00;3.03;;;;;;;27.01;40.99;99382.09;4434321;32;33702;-67
2023/07/12 03:55:57;;;;;;;9.57;3.45;;;;;;;27.21;40.03;99378.28;4432374;32;33126;-64
2023/07/12 03:58:28;;;;;;;6.28;3.60;;;;;;;27.28;40.04;99376.28;4433458;32;33881;-64
2023/07/12 04:00:56;;;;;;;6.60;3.75;;;;;;;27.33;39.72;99377.25;4428995;32;34920;-65
2023/07/12 04:03:23;;;;;;;6.18;3.90;;;;;;;27.23;40.27;99381.63;4433583;32;33563;-64
2023/07/12 04:05:52;;;;;;;9.90;4.22;;;;;;;26.75;41.37;99377.75;4435574;32;34729;-65
2023/07/12 04:08:20;;;;;;;8.77;4.05;;;;;;;27.08;41.07;99374.59;4433392;32;34637;-65
2023/07/12 04:10:52;;;;;;;7.65;3.30;;;;;;;27.29;40.32;99377.97;4434724;32;33901;-65
2023/07/12 04:13:21;;;;;;;5.85;3.20;;;;;;;27.26;40.52;99395.75;4433780;32;35287;-65
2023/07/12 04:15:52;;;;;;;9.13;4.53;;;;;;;27.20;40.66;99391.19;4433269;32;34237;-65
2023/07/12 04:18:20;;;;;;;8.27;3.55;;;;;;;27.23;40.57;99396.22;4435266;32;33599;-64
2023/07/12 04:20:48;;;;;;;7.60;3.95;;;;;;;27.06;41.09;99401.47;4435464;32;34049;-65
2023/07/12 04:23:16;;;;;;;9.45;4.25;;;;;;;27.15;40.78;99394.59;4432840;32;33515;-66
2023/07/12 04:25:43;;;;;;;9.82;4.05;;;;;;;26.95;41.45;99408.56;4433900;32;32825;-65
2023/07/12 04:28:12;;;;;;;9.07;4.43;;;;;;;27.09;41.16;99409.22;4435385;32;34984;-65
2023/07/12 04:30:39;;;;;;;11.23;4.45;;;;;;;27.18;41.22;99396.06;4433738;32;34700;-65
2023/07/12 04:33:07;;;;;;;7.72;4.60;;;;;;;27.21;41.28;99370.03;4433817;32;34875;-65
2023/07/12 04:35:38;;;;;;;7.57;4.10;;;;;;;27.13;41.89;99352.81;4435623;32;33230;-65
2023/07/12 04:38:06;;;;;;;8.38;3.78;;;;;;;27.03;41.91;99351.63;4435616;32;33447;-64
2023/07/12 04:40:34;;;;;;;10.35;4.30;;;;;;;27.29;41.40;99373.31;4433622;32;34956;-64
2023/07/12 04:43:01;;;;;;;9.43;4.78;;;;;;;27.33;41.38;99368.19;4433761;32;34076;-64
2023/07/12 04:45:29;;;;;;;7.25;3.85;;;;;;;27.30;41.74;99350.25;4433493;32;33410;-63
2023/07/12 04:47:57;;;;;;;6.18;3.53;;;;;;;27.24;41.68;99342.09;4432855;32;34715;-64
2023/07/12 04:50:25;;;;;;;6.82;3.67;;;;;;;26.85;42.12;99347.84;4435418;32;34991;-63
2023/07/12 04:52:52;;;;;;;10.00;5.28;;;;;;;27.16;41.55;99354.25;4435266;32;34628;-64
2023/07/12 04:55:23;;;;;;;9.57;4.35;;;;;;;27.20;41.45;99362.88;4433379;32;33168;-65
2023/07/12 04:57:51;;;;;;;7.12;3.83;;;;;;;27.08;41.61;99355.38;4434056;32;34360;-64
2023/07/12 05:00:19;;;;;;;12.32;4.90;;;;;;;27.01;41.89;99351.88;4433301;32;34021;-63
2023/07/12 05:02:47;;;;;;;10.20;4.32;;;;;;;26.76;42.81;99364.88;4428582;32;34038;-63
2023/07/12 05:05:15;;;;;;;6.75;3.95;;;;;;;27.17;42.07;99381.47;4431769;32;32951;-63
2023/07/12 05:07:42;;;;;;;8.15;3.75;;;;;;;27.05;42.35;99375.06;4433829;32;34670;-63
2023/07/12 05:10:10;;;;;;;9.40;5.15;;;;;;;27.20;41.79;99382.09;4435303;32;34108;-64
2023/07/12 05:12:40;;;;;;;8.18;4.03;;;;;;;27.10;42.39;99371.62;4433935;32;34574;-63
2023/07/12 05:15:09;;;;;;;10.65;4.07;;;;;;;27.06;42.52;99356.66;4433537;32;33570;-64
2023/07/12 05:17:37;;;;;;;6.60;3.72;;;;;;;27.18;42.40;99372.16;4425948;32;34394;-64
2023/07/12 05:20:07;;;;;;;8.05;3.65;;;;;;;27.16;42.26;99363.34;4433189;32;35375;-63
2023/07/12 05:22:35;;;;;;;10.63;4.72;;;;;;;27.01;42.60;99354.63;4433390;32;33632;-62
2023/07/12 05:25:03;;;;;;;7.85;3.85;;;;;;;27.12;42.67;99353.81;4435170;32;34816;-63
2023/07/12 05:27:31;;;;;;;8.48;4.47;;;;;;;26.66;43.42;99358.00;4433330;32;35246;-63
2023/07/12 05:29:58;;;;;;;9.65;3.70;;;;;;;26.83;43.47;99354.63;4430809;32;34145;-64
2023/07/12 05:32:26;;;;;;;14.80;5.12;;;;;;;26.89;43.04;99349.06;4434598;32;33641;-63
2023/07/12 05:34:54;;;;;;;9.55;4.30;;;;;;;27.07;43.07;99348.22;4433425;32;33092;-63
2023/07/12 05:37:22;;;;;;;8.55;4.50;;;;;;;26.91;42.89;99343.34;4434562;32;34507;-63
2023/07/12 05:39:54;;;;;;;8.30;3.92;;;;;;;26.90;43.39;99341.66;4434186;32;33372;-63
2023/07/12 05:42:22;;;;;;;9.60;4.37;;;;;;;27.04;43.25;99342.34;4433622;32;33395;-63
2023/07/12 05:44:49;;;;;;;7.40;4.47;;;;;;;27.28;43.13;99348.78;4433381;32;34620;-63
2023/07/12 05:47:17;;;;;;;5.90;3.60;;;;;;;27.07;43.01;99350.12;4435095;32;33715;-63
2023/07/12 05:49:45;;;;;;;6.90;4.62;;;;;;;26.66;43.03;99352.50;4432591;32;34319;-63
2023/07/12 05:52:12;;;;;;;6.90;3.90;;;;;;;27.02;42.64;99359.03;4434018;32;34044;-64
2023/07/12 05:54:40;;;;;;;9.20;3.87;;;;;;;27.09;43.03;99346.06;4433116;32;33242;-63
2023/07/12 05:57:08;;;;;;;9.75;4.32;;;;;;;27.09;43.12;99340.56;4433021;32;33514;-63
2023/07/12 05:59:35;;;;;;;10.02;4.80;;;;;;;27.31;42.18;99332.69;4430218;32;33566;-63
2023/07/12 06:02:03;;;;;;;8.77;4.20;;;;;;;26.96;43.23;99321.50;4431157;32;34643;-64
2023/07/12 06:04:32;;;;;;;8.57;4.15;;;;;;;26.60;43.52;99316.91;4430908;32;33597;-64
2023/07/12 06:06:59;;;;;;;8.07;3.97;;;;;;;27.01;42.71;99329.06;4434563;32;33481;-63
2023/07/12 06:09:27;;;;;;;11.95;5.12;;;;;;;27.16;42.02;99329.53;4433531;32;34070;-63
2023/07/12 06:11:55;;;;;;;8.60;4.35;;;;;;;27.02;42.49;99323.34;4436104;32;33637;-62
2023/07/12 06:14:22;;;;;;;9.35;4.68;;;;;;;27.10;42.57;99316.69;4430873;32;34450;-63
2023/07/12 06:16:50;;;;;;;8.15;4.62;;;;;;;27.23;42.37;99313.78;4432972;32;34455;-63
2023/07/12 06:19:18;;;;;;;10.50;4.50;;;;;;;27.10;42.46;99316.69;4433366;32;34050;-63
2023/07/12 06:21:45;;;;;;;8.00;4.12;;;;;;;27.42;41.96;99314.56;4430205;32;33607;-63
2023/07/12 06:24:13;;;;;;;7.93;4.03;;;;;;;27.15;42.62;99305.88;4435912;32;34162;-64
2023/07/12 06:26:41;;;;;;;6.72;4.43;;;;;;;27.07;42.70;99300.69;4433001;32;33938;-63
2023/07/12 06:29:08;;;;;;;9.02;4.37;;;;;;;27.10;42.59;99300.22;4434956;32;34163;-63
2023/07/12 06:31:36;;;;;;;5.40;3.50;;;;;;;27.27;42.06;99295.75;4434397;32;33987;-63
2023/07/12 06:34:04;;;;;;;8.65;5.00;;;;;;;27.45;41.93;99289.38;4435185;32;34460;-64
2023/07/12 06:36:33;;;;;;;10.10;5.15;;;;;;;27.49;42.92;99296.06;4435781;32;33932;-64
2023/07/12 06:39:00;;;;;;;10.48;4.78;;;;;;;27.92;41.90;99302.34;4433969;32;33939;-65
2023/07/12 06:41:29;;;;;;;9.63;4.85;;;;;;;27.85;41.59;99308.81;4435927;32;34854;-65
2023/07/12 06:43:56;;;;;;;8.93;5.12;;;;;;;28.37;40.58;99321.00;4435914;32;32819;-64
2023/07/12 06:46:24;;;;;;;9.82;5.55;;;;;;;28.61;40.17;99314.41;4435685;32;34633;-64
2023/07/12 06:48:52;;;;;;;9.27;4.37;;;;;;;27.96;41.36;99312.66;4435746;32;34633;-64
2023/07/12 06:51:21;;;;;;;9.73;5.20;;;;;;;28.24;41.91;99314.66;4434959;32;33681;-65
2023/07/12 06:53:49;;;;;;;13.35;6.22;;;;;;;28.57;40.39;99313.22;4436849;32;33642;-64
2023/07/12 06:56:17;;;;;;;11.25;4.90;;;;;;;28.65;40.11;99306.50;4436232;32;33970;-64
2023/07/12 06:58:44;;;;;;;11.07;5.25;;;;;;;28.66;40.75;99309.00;4432980;32;34939;-66
2023/07/12 07:01:12;;;;;;;11.07;6.62;;;;;;;28.92;40.38;99307.59;4433971;32;33793;-64
2023/07/12 07:03:40;;;;;;;9.77;6.25;;;;;;;28.85;40.00;99309.66;4436004;32;33461;-63
2023/07/12 07:06:08;;;;;;;13.90;5.78;;;;;;;29.35;39.79;99311.78;4435678;32;34253;-65
2023/07/12 07:08:36;;;;;;;9.95;5.25;;;;;;;29.11;40.91;99304.69;4433736;32;33902;-64
2023/07/12 07:11:04;;;;;;;12.05;7.20;;;;;;;29.29;39.78;99296.22;4434506;32;33703;-64
2023/07/12 07:13:31;;;;;;;9.52;6.10;;;;;;;29.21;40.14;99285.59;4434867;32;33448;-63
2023/07/12 07:15:59;;;;;;;11.80;6.37;;;;;;;29.33;40.13;99277.28;4435066;32;33249;-63
2023/07/12 07:18:28;;;;;;;11.50;7.10;;;;;;;29.45;40.36;99267.00;4436595;32;33844;-65
2023/07/12 07:20:59;;;;;;;12.77;7.05;;;;;;;29.51;40.34;99252.22;4435934;32;33512;-64
2023/07/12 07:23:26;;;;;;;10.77;7.05;;;;;;;29.72;39.79;99236.88;4435040;32;33326;-65
2023/07/12 07:25:55;;;;;;;14.35;8.32;;;;;;;29.87;39.47;99242.62;4436073;32;33944;-64
2023/07/12 07:28:23;;;;;;;13.70;6.57;;;;;;;29.80;39.49;99239.22;4432830;32;34164;-64
2023/07/12 07:30:58;;;;;;;13.98;6.68;;;;;;;29.89;39.80;99231.34;4428818;32;33858;-64
2023/07/12 07:33:26;;;;;;;9.82;5.95;;;;;;;29.65;40.17;99225.19;4434116;32;33012;-66
2023/07/12 07:35:55;;;;;;;9.65;5.00;;;;;;;29.75;39.62;99227.25;4435917;32;33704;-65
2023/07/12 07:38:26;;;;;;;10.75;5.90;;;;;;;29.71;39.78;99221.41;4435704;32;35073;-64
2023/07/12 07:40:55;;;;;;;13.82;6.03;;;;;;;29.97;39.29;99217.09;4434648;32;33652;-65
2023/07/12 07:43:23;;;;;;;15.98;5.87;;;;;;;29.77;40.22;99219.56;4436163;32;34535;-65
2023/07/12 07:45:51;;;;;;;8.63;5.22;;;;;;;29.75;41.04;99216.22;4431923;32;34718;-64
2023/07/12 07:48:19;;;;;;;11.27;7.65;;;;;;;29.72;40.56;99212.03;4434769;32;34064;-64
2023/07/12 07:50:47;;;;;;;15.27;7.15;;;;;;;29.91;40.02;99221.72;4433996;32;34633;-64
2023/07/12 07:53:14;;;;;;;9.70;5.93;;;;;;;29.74;40.20;99220.91;4436419;32;33274;-64
2023/07/12 07:55:43;;;;;;;10.52;6.72;;;;;;;29.28;41.10;99213.78;4437340;32;34600;-64
2023/07/12 07:58:12;;;;;;;13.40;5.70;;;;;;;29.63;39.15;99202.53;4434194;32;34231;-63
2023/07/12 08:00:39;;;;;;;9.38;5.18;;;;;;;29.89;38.88;99195.50;4432277;32;33401;-64
2023/07/12 08:03:07;;;;;;;13.88;6.78;;;;;;;29.66;39.47;99191.84;4434921;32;33443;-64
2023/07/12 08:05:35;;;;;;;9.98;5.43;;;;;;;29.39;40.61;99190.81;4435590;32;34947;-64
2023/07/12 08:08:03;;;;;;;7.75;5.53;;;;;;;29.62;39.65;99189.84;4436225;32;33823;-64
2023/07/12 08:10:32;;;;;;;10.85;6.30;;;;;;;29.64;40.21;99188.50;4432519;32;35550;-65
2023/07/12 08:13:00;;;;;;;18.60;7.50;;;;;;;29.92;39.64;99178.41;4433797;32;33262;-64
2023/07/12 08:15:28;;;;;;;10.55;6.25;;;;;;;30.02;39.11;99177.72;4433119;32;33674;-63
2023/07/12 08:17:56;;;;;;;13.07;6.75;;;;;;;30.07;39.17;99175.03;4433451;32;34082;-63
2023/07/12 08:20:24;;;;;;;18.60;8.38;;;;;;;30.01;39.50;99181.56;4428859;32;34018;-64
2023/07/12 08:22:52;;;;;;;11.52;7.07;;;;;;;29.75;40.05;99183.13;4433082;32;31713;-64
2023/07/12 08:25:21;;;;;;;19.65;7.87;;;;;;;29.75;40.01;99178.44;4429924;32;33509;-64
2023/07/12 08:27:48;;;;;;;19.02;6.20;;;;;;;30.10;40.64;99180.03;4433136;32;34031;-64
2023/07/12 08:30:16;;;;;;;8.77;5.37;;;;;;;30.02;39.91;99172.22;4424725;32;34021;-65
2023/07/12 08:32:44;;;;;;;19.92;7.37;;;;;;;30.01;40.11;99176.03;4435390;32;33350;-65
2023/07/12 08:35:11;;;;;;;14.87;6.75;;;;;;;30.25;39.82;99174.75;4434243;32;33233;-65
2023/07/12 08:37:40;;;;;;;11.07;6.53;;;;;;;29.92;39.85;99183.91;4434483;32;35112;-65
2023/07/12 08:40:12;;;;;;;12.77;6.47;;;;;;;29.66;39.96;99191.84;4437265;32;33681;-65
2023/07/12 08:42:42;;;;;;;10.18;5.82;;;;;;;30.03;40.08;99199.53;4422057;32;33951;-65
2023/07/12 08:45:22;;;;;;;11.32;6.90;;;;;;;30.33;39.58;99188.06;4422201;32;33722;-66
2023/07/12 08:47:53;;;;;;;12.20;7.45;;;;;;;30.62;39.02;99183.16;4429065;32;34369;-66
2023/07/12 08:50:21;;;;;;;14.05;6.05;;;;;;;30.37;39.22;99189.25;4431136;32;33251;-65
2023/07/12 08:52:49;;;;;;;9.70;5.97;;;;;;;30.54;39.16;99182.81;4431368;32;34222;-65
2023/07/12 08:55:19;;;;;;;15.98;8.00;;;;;;;30.55;39.45;99184.47;4428667;32;33830;-65
2023/07/12 08:57:52;;;;;;;14.57;6.43;;;;;;;30.44;41.38;99194.56;4428332;32;33836;-65
2023/07/12 09:00:30;;;;;;;11.68;7.55;;;;;;;31.12;39.32;99208.03;4430877;32;33938;-65
2023/07/12 09:02:58;;;;;;;11.88;6.78;;;;;;;31.16;39.26;99215.50;4429119;32;34314;-65
2023/07/12 09:05:26;;;;;;;13.57;6.95;;;;;;;31.46;38.99;99214.13;4430237;32;33981;-65
2023/07/12 09:08:04;;;;;;;11.55;7.87;;;;;;;30.89;38.82;99212.78;4428081;32;34300;-65
2023/07/12 09:10:41;;;;;;;15.10;7.18;;;;;;;31.52;38.93;99227.72;4428964;32;33462;-64
2023/07/12 09:13:11;;;;;;;11.55;8.45;;;;;;;31.47;38.82;99226.88;4431942;32;33152;-64
2023/07/12 09:15:48;;;;;;;11.35;7.45;;;;;;;31.71;38.56;99216.25;4429514;32;33598;-65
2023/07/12 09:18:25;;;;;;;12.10;7.90;;;;;;;31.51;38.36;99216.94;4424623;32;33716;-65
2023/07/12 09:20:53;;;;;;;12.65;8.13;;;;;;;31.60;37.96;99225.59;4430445;32;33492;-65
2023/07/12 09:23:21;;;;;;;13.43;9.43;;;;;;;31.81;37.87;99210.78;4432410;32;32743;-65
2023/07/12 09:25:54;;;;;;;12.80;8.65;;;;;;;31.72;37.63;99217.94;4433385;32;33689;-67
2023/07/12 09:28:22;;;;;;;12.17;8.43;;;;;;;31.72;38.71;99226.25;4425423;32;34991;-65
2023/07/12 09:30:51;;;;;;;16.45;9.65;;;;;;;32.01;37.43;99223.97;4435826;32;33743;-65
2023/07/12 09:33:23;;;;;;;11.07;7.78;;;;;;;32.17;36.91;99231.25;4432159;32;34512;-65
2023/07/12 09:35:51;;;;;;;19.58;9.73;;;;;;;32.08;36.93;99237.56;4434127;32;33893;-67
2023/07/12 09:38:23;;;;;;;15.13;9.52;;;;;;;32.18;37.26;99232.91;4434038;32;35068;-64
2023/07/12 09:40:52;;;;;;;13.98;9.35;;;;;;;32.21;36.87;99237.91;4435885;32;35090;-64
2023/07/12 09:43:23;;;;;;;12.73;7.70;;;;;;;32.19;37.35;99242.88;4434698;32;33522;-65
2023/07/12 09:46:05;;;;;;;14.35;9.30;;;;;;;32.08;37.75;99240.34;4429732;32;34004;-65
2023/07/12 09:48:47;;;;;;;11.02;8.95;;;;;;;32.43;37.01;99240.56;4428775;32;32863;-65
2023/07/12 09:51:30;;;;;;;14.98;9.82;;;;;;;32.29;37.56;99231.03;4426668;32;33540;-65
2023/07/12 09:54:21;;;;;;;11.95;8.35;;;;;;;32.31;37.94;99225.22;4426179;32;34030;-65
2023/07/12 09:57:03;;;;;;;14.32;10.02;;;;;;;32.41;37.83;99228.88;4412711;32;33611;-65
2023/07/12 10:00:02;;;;;;;13.35;9.82;;;;;;;32.37;37.46;99235.22;4414836;32;33964;-65
2023/07/12 10:02:51;;;;;;;13.52;8.98;;;;;;;32.04;38.03;99225.34;4411219;32;33458;-65
2023/07/12 10:05:20;;;;;;;18.05;9.18;;;;;;;32.59;38.23;99219.28;4404850;32;33394;-65
2023/07/12 10:08:01;;;;;;;13.55;9.23;;;;;;;32.90;36.95;99217.41;4417424;32;33979;-66
2023/07/12 10:10:38;;;;;;;14.63;10.88;;;;;;;33.02;36.25;99206.09;4418713;32;35140;-65
2023/07/12 10:13:12;;;;;;;13.77;9.63;;;;;;;33.21;36.02;99211.13;4401079;32;33574;-64
2023/07/12 10:15:41;;;;;;;12.60;9.32;;;;;;;32.98;37.06;99216.09;4408171;32;33159;-62
2023/07/12 10:18:17;;;;;;;18.33;8.88;;;;;;;33.24;36.82;99205.03;4413030;32;33748;-62
2023/07/12 10:20:47;;;;;;;13.02;9.00;;;;;;;32.80;37.49;99203.53;4409255;32;33999;-62
2023/07/12 10:23:17;;;;;;;13.73;9.23;;;;;;;33.20;36.85;99199.19;4416385;32;33636;-63
2023/07/12 10:25:57;;;;;;;17.23;9.65;;;;;;;33.33;36.58;99204.19;4418447;32;34633;-65
2023/07/12 10:28:38;;;;;;;12.15;8.13;;;;;;;33.45;36.58;99201.13;4399615;32;33888;-65
2023/07/12 10:31:17;;;;;;;11.35;8.13;;;;;;;33.99;35.56;99194.97;4415663;32;34939;-64
2023/07/12 10:33:47;;;;;;;13.35;9.10;;;;;;;34.18;35.34;99189.66;4423978;32;33372;-64
2023/07/12 10:36:16;;;;;;;13.90;9.07;;;;;;;34.57;34.44;99183.38;4435414;32;33287;-64
2023/07/12 10:38:44;;;;;;;13.30;9.18;;;;;;;34.61;34.20;99175.31;4414962;32;34046;-64
2023/07/12 10:41:18;;;;;;;18.37;8.32;;;;;;;34.34;35.40;99161.81;4415393;32;33513;-64
2023/07/12 10:43:46;;;;;;;;;;;;;;;34.71;34.76;99161.38;4402649;32;33618;-64
2023/07/12 10:46:17;;;;;;;15.88;9.07;;;;;;;34.70;34.43;99165.25;4415452;32;34701;-64
2023/07/12 10:48:48;;;;;;;13.48;9.23;;;;;;;34.94;34.45;99173.72;4416470;32;33536;-64
2023/07/12 10:51:26;;;;;;;15.38;9.40;;;;;;;34.53;35.03;99180.34;4415524;32;34978;-64
2023/07/12 10:53:55;;;;;;;12.63;8.02;;;;;;;35.24;33.93;99172.69;4371943;32;34009;-65
2023/07/12 10:56:51;;;;;;;11.05;8.35;;;;;;;34.93;34.68;99181.25;4361817;32;33230;-65
2023/07/12 10:59:30;;;;;;;14.93;8.90;;;;;;;34.91;34.96;99177.91;4362916;32;33776;-64
2023/07/12 11:02:03;;;;;;;16.05;8.48;;;;;;;35.54;34.17;99179.97;4366471;32;34663;-65
2023/07/12 11:04:34;;;;;;;14.30;9.68;;;;;;;35.57;33.34;99186.88;4373022;32;33726;-64
2023/07/12 11:07:11;;;;;;;13.68;8.77;;;;;;;35.57;33.01;99178.53;4368705;32;33319;-64
2023/07/12 11:09:51;;;;;;;12.77;7.72;;;;;;;35.39;33.64;99180.06;4378050;32;35236;-64
2023/07/12 11:12:30;;;;;;;13.50;9.07;;;;;;;35.15;34.46;99183.59;4394649;32;33748;-63
2023/07/12 11:15:17;;;;;;;12.27;8.43;;;;;;;35.42;34.09;99180.31;4394127;32;34369;-64
2023/07/12 11:18:03;;;;;;;11.95;8.73;;;;;;;34.56;35.59;99186.47;4398141;32;33405;-65
2023/07/12 11:20:35;;;;;;;11.68;8.40;;;;;;;34.74;35.19;99183.03;4392963;32;33647;-66
2023/07/12 11:23:06;;;;;;;12.60;9.25;;;;;;;35.28;34.31;99195.19;4400122;32;34964;-66
2023/07/12 11:25:43;;;;;;;14.70;9.48;;;;;;;35.37;34.20;99191.47;4424438;32;33567;-65
2023/07/12 11:28:20;;;;;;;15.68;8.75;;;;;;;35.58;33.98;99191.34;4434507;32;34155;-66
2023/07/12 11:31:26;;;;;;;9.50;7.62;;;;;;;35.53;33.66;99196.94;4433943;32;33690;-65
2023/07/12 11:33:57;;;;;;;14.05;9.35;;;;;;;35.57;33.90;99206.34;4435051;32;34157;-65
2023/07/12 11:36:28;;;;;;;15.10;8.88;;;;;;;35.15;34.67;99199.44;4432123;32;33918;-65
2023/07/12 11:38:56;;;;;;;13.85;8.63;;;;;;;35.32;34.41;99188.75;4435591;32;33336;-66
2023/07/12 11:41:26;;;;;;;13.73;8.25;;;;;;;34.86;35.97;99200.16;4433393;32;33683;-65
2023/07/12 11:44:05;;;;;;;13.00;8.02;;;;;;;34.70;35.86;99193.03;4427158;32;33893;-65